Time;durP1;ratioP1;P1;durP2;ratioP2;P2;SDS_P1;SDS_P2;PMS_P1;PMS_P2;Temp;Humidity;BMP_temperature;BMP_pressure;BME280_temperature;BME280_humidity;BME280_pressure;Samples;Min_cycle;Max_cycle;Signal;HPM_P1;HPM_P2
2022/02/19 00:02:07;;;;;;;2.97;1.00;;;7.20;72.30;;;;;;5076673;28;20059;-61
2022/02/19 00:05:31;;;;;;;4.95;1.13;;;7.20;70.00;;;;;;5064905;28;20052;-62
2022/02/19 00:08:56;;;;;;;4.05;1.13;;;7.20;67.30;;;;;;5053996;28;20537;-62
2022/02/19 00:12:22;;;;;;;4.45;1.27;;;7.20;65.50;;;;;;5079410;28;20036;-60
2022/02/19 00:15:47;;;;;;;4.15;1.17;;;7.30;65.00;;;;;;5063002;28;20770;-61
2022/02/19 00:19:13;;;;;;;4.32;0.90;;;7.40;60.70;;;;;;5076146;28;20075;-62
2022/02/19 00:22:38;;;;;;;3.92;1.33;;;7.40;58.50;;;;;;5073860;28;20044;-62
2022/02/19 00:26:03;;;;;;;3.40;1.25;;;7.40;58.20;;;;;;5067940;28;20503;-62
2022/02/19 00:29:29;;;;;;;6.50;1.20;;;7.50;54.50;;;;;;5073106;28;20082;-61
2022/02/19 00:32:54;;;;;;;6.40;1.00;;;7.50;55.60;;;;;;5072262;28;20040;-62
2022/02/19 00:36:19;;;;;;;3.55;1.33;;;7.50;56.50;;;;;;5065690;28;20566;-62
2022/02/19 00:39:45;;;;;;;4.07;1.10;;;7.50;57.90;;;;;;5081202;28;20059;-62
2022/02/19 00:43:10;;;;;;;2.88;0.93;;;7.50;61.50;;;;;;5053878;28;20555;-61
2022/02/19 00:46:35;;;;;;;7.35;1.25;;;7.40;63.30;;;;;;5078167;28;20039;-62
2022/02/19 00:50:01;;;;;;;5.32;1.05;;;7.40;65.60;;;;;;5075168;28;20048;-62
2022/02/19 00:53:27;;;;;;;7.07;1.17;;;7.30;68.60;;;;;;5073954;28;20116;-61
2022/02/19 00:56:51;;;;;;;8.35;1.42;;;7.20;69.30;;;;;;5064323;28;20048;-62
2022/02/19 01:00:17;;;;;;;6.07;1.40;;;7.20;65.20;;;;;;5079671;28;20502;-62
2022/02/19 01:03:42;;;;;;;9.82;2.25;;;7.20;63.20;;;;;;5069473;28;20064;-63
2022/02/19 01:07:08;;;;;;;7.63;1.35;;;7.20;64.80;;;;;;5080738;28;20032;-61
2022/02/19 01:10:34;;;;;;;7.53;1.83;;;7.20;59.50;;;;;;5086491;28;20043;-61
2022/02/19 01:13:58;;;;;;;5.18;1.13;;;7.20;57.20;;;;;;5073667;28;20771;-62
2022/02/19 01:17:24;;;;;;;6.32;1.10;;;7.20;58.10;;;;;;5072413;28;20074;-61
2022/02/19 01:20:49;;;;;;;6.40;1.67;;;7.20;58.10;;;;;;5076356;28;20048;-62
2022/02/19 01:24:15;;;;;;;6.60;1.40;;;7.20;56.70;;;;;;5077786;28;20044;-62
2022/02/19 01:27:40;;;;;;;5.70;1.60;;;7.20;55.30;;;;;;5071931;28;20070;-62
2022/02/19 01:31:05;;;;;;;6.03;1.52;;;7.10;51.40;;;;;;5065636;28;20048;-62
2022/02/19 01:34:31;;;;;;;7.82;1.50;;;7.20;52.50;;;;;;5063941;28;20123;-61
2022/02/19 01:37:56;;;;;;;7.55;1.58;;;7.20;50.30;;;;;;5080257;28;20109;-62
2022/02/19 01:41:21;;;;;;;7.25;1.52;;;7.20;50.80;;;;;;5045629;28;20041;-62
2022/02/19 01:44:53;;;;;;;3.97;1.20;;;7.10;50.10;;;;;;5055339;28;20112;-62
2022/02/19 01:48:19;;;;;;;8.40;1.30;;;7.10;46.60;;;;;;5082735;28;20043;-62
2022/02/19 01:51:43;;;;;;;7.47;2.13;;;7.10;47.90;;;;;;5083285;28;20044;-62
2022/02/19 01:55:09;;;;;;;9.95;1.88;;;7.10;43.20;;;;;;5084518;28;20032;-61
2022/02/19 01:58:34;;;;;;;7.95;2.03;;;7.10;42.10;;;;;;5083056;28;20514;-60
2022/02/19 02:01:59;;;;;;;5.97;1.63;;;7.10;41.60;;;;;;5049030;28;20037;-61
2022/02/19 02:05:25;;;;;;;10.75;1.63;;;7.20;40.70;;;;;;5085521;28;20467;-61
2022/02/19 02:08:50;;;;;;;7.85;1.52;;;7.10;41.20;;;;;;5070250;28;20439;-61
2022/02/19 02:12:16;;;;;;;5.20;1.50;;;7.10;41.50;;;;;;5077520;28;20028;-62
2022/02/19 02:15:41;;;;;;;5.28;1.42;;;7.10;40.10;;;;;;5068702;28;20048;-62
2022/02/19 02:19:08;;;;;;;10.48;2.03;;;7.10;41.10;;;;;;5063884;28;20063;-61
2022/02/19 02:22:32;;;;;;;9.23;1.80;;;7.10;39.00;;;;;;5081287;28;20024;-61
2022/02/19 02:25:58;;;;;;;8.00;1.40;;;7.20;38.80;;;;;;5077746;28;20078;-62
2022/02/19 02:29:22;;;;;;;6.20;1.23;;;7.10;38.30;;;;;;5072947;28;20036;-60
2022/02/19 02:32:48;;;;;;;14.55;2.33;;;7.00;39.00;;;;;;5047011;28;20039;-60
2022/02/19 02:36:13;;;;;;;6.70;1.90;;;7.00;38.20;;;;;;5078039;28;20044;-61
2022/02/19 02:39:40;;;;;;;8.25;2.42;;;6.90;38.60;;;;;;5077890;28;20049;-62
2022/02/19 02:43:04;;;;;;;17.58;2.05;;;6.90;40.00;;;;;;5068001;28;20123;-61
2022/02/19 02:46:29;;;;;;;8.23;1.88;;;6.80;40.50;;;;;;5056585;28;20491;-61
2022/02/19 02:49:55;;;;;;;6.18;1.48;;;6.70;39.60;;;;;;5074974;28;20050;-62
2022/02/19 02:53:20;;;;;;;8.02;1.85;;;6.80;39.90;;;;;;5087354;28;20032;-61
2022/02/19 02:56:45;;;;;;;7.25;1.70;;;6.80;38.40;;;;;;5079246;28;20423;-61
2022/02/19 03:00:15;;;;;;;6.03;1.45;;;6.90;37.70;;;;;;5081136;28;20051;-61
2022/02/19 03:03:39;;;;;;;5.40;1.85;;;6.90;37.10;;;;;;5090577;28;20126;-61
2022/02/19 03:07:04;;;;;;;5.38;1.52;;;6.90;36.60;;;;;;5086940;28;20411;-61
2022/02/19 03:10:29;;;;;;;9.38;2.20;;;6.90;35.70;;;;;;5088757;28;20036;-61
2022/02/19 03:13:55;;;;;;;6.07;1.67;;;6.90;35.90;;;;;;5089249;28;20036;-61
2022/02/19 03:17:20;;;;;;;8.73;1.98;;;6.90;34.40;;;;;;5068878;28;20038;-62
2022/02/19 03:20:47;;;;;;;7.05;1.77;;;6.80;35.20;;;;;;5080813;28;20032;-61
2022/02/19 03:24:11;;;;;;;6.57;1.30;;;6.80;33.90;;;;;;5085665;28;20044;-62
2022/02/19 03:27:36;;;;;;;10.27;2.05;;;6.60;34.40;;;;;;5066355;28;20111;-62
2022/02/19 03:31:01;;;;;;;4.70;1.20;;;6.50;34.70;;;;;;5051646;28;20052;-62
2022/02/19 03:34:27;;;;;;;5.15;1.92;;;6.50;32.70;;;;;;5080557;28;20699;-61
2022/02/19 03:37:52;;;;;;;5.07;1.50;;;6.50;33.20;;;;;;5071493;28;20056;-61
2022/02/19 03:41:18;;;;;;;7.97;1.85;;;6.60;34.60;;;;;;5081773;28;20028;-61
2022/02/19 03:44:43;;;;;;;11.05;1.55;;;6.70;33.40;;;;;;5048080;28;20032;-61
2022/02/19 03:48:08;;;;;;;5.95;1.98;;;6.80;32.60;;;;;;5083258;28;20151;-62
2022/02/19 03:51:34;;;;;;;6.45;1.60;;;6.80;31.80;;;;;;5083901;28;20027;-60
2022/02/19 03:54:59;;;;;;;3.67;1.42;;;6.90;32.70;;;;;;5051441;28;20037;-62
2022/02/19 03:58:24;;;;;;;6.03;1.30;;;6.80;32.50;;;;;;5087547;28;20094;-61
2022/02/19 04:01:50;;;;;;;10.18;1.60;;;6.90;31.90;;;;;;5085677;28;20032;-62
2022/02/19 04:05:15;;;;;;;11.32;1.70;;;6.90;32.10;;;;;;5079843;28;20671;-61
2022/02/19 04:08:40;;;;;;;3.95;1.25;;;6.90;32.70;;;;;;5080154;28;20032;-61
2022/02/19 04:12:06;;;;;;;4.03;1.75;;;6.80;32.60;;;;;;5069920;28;20070;-62
2022/02/19 04:15:31;;;;;;;5.28;1.35;;;6.90;32.60;;;;;;5085215;28;20032;-61
2022/02/19 04:18:56;;;;;;;6.40;1.60;;;6.90;33.30;;;;;;5088021;28;20044;-62
2022/02/19 04:22:22;;;;;;;6.63;2.08;;;6.90;33.20;;;;;;5069612;28;20516;-61
2022/02/19 04:25:47;;;;;;;4.30;1.40;;;6.90;34.30;;;;;;5079652;28;20074;-61
2022/02/19 04:29:13;;;;;;;7.13;1.40;;;6.80;34.80;;;;;;5079841;28;20032;-61
2022/02/19 04:31:58;;;;;;;11.07;1.92;;;6.80;35.90;;;;;;5070699;28;20029;-64
2022/02/19 04:34:24;;;;;;;6.70;1.95;;;6.80;36.50;;;;;;5089990;28;20024;-64
2022/02/19 04:37:29;;;;;;;3.33;1.23;;;6.80;37.60;;;;;;5051293;28;20480;-63
2022/02/19 04:40:55;;;;;;;9.82;2.08;;;6.70;39.60;;;;;;5085017;28;20040;-64
2022/02/19 04:44:20;;;;;;;12.48;1.70;;;6.70;41.90;;;;;;5081750;28;20105;-64
2022/02/19 04:47:46;;;;;;;8.45;1.65;;;6.70;44.60;;;;;;5063579;28;20028;-63
2022/02/19 04:51:11;;;;;;;8.30;1.67;;;6.60;47.20;;;;;;5076916;28;20036;-63
2022/02/19 04:54:36;;;;;;;5.18;1.92;;;6.50;48.60;;;;;;5072645;28;20062;-64
2022/02/19 04:58:01;;;;;;;5.25;1.40;;;6.50;50.10;;;;;;5077525;28;20071;-64
2022/02/19 05:01:27;;;;;;;6.30;1.73;;;6.50;51.20;;;;;;5062925;28;20073;-63
2022/02/19 05:04:52;;;;;;;9.82;1.50;;;6.50;51.70;;;;;;5082425;28;20040;-63
2022/02/19 05:08:18;;;;;;;9.32;2.10;;;6.40;53.50;;;;;;5050054;28;20044;-64
2022/02/19 05:11:43;;;;;;;5.65;1.40;;;6.40;53.90;;;;;;5068159;28;20638;-64
2022/02/19 05:15:08;;;;;;;9.18;1.50;;;6.40;55.90;;;;;;5076889;28;20028;-64
2022/02/19 05:18:34;;;;;;;6.55;1.40;;;6.30;56.60;;;;;;5071147;28;20041;-63
2022/02/19 05:21:59;;;;;;;6.53;1.70;;;6.30;58.30;;;;;;5085043;28;20054;-63
2022/02/19 05:25:24;;;;;;;10.25;1.63;;;6.30;58.70;;;;;;5084283;28;20063;-63
2022/02/19 05:28:50;;;;;;;4.95;1.55;;;6.30;59.50;;;;;;5049623;28;20029;-64
2022/02/19 05:32:15;;;;;;;5.78;2.03;;;6.30;59.50;;;;;;5078681;28;20487;-64
2022/02/19 05:35:40;;;;;;;10.60;2.08;;;6.30;59.20;;;;;;5062955;28;20082;-64
2022/02/19 05:39:06;;;;;;;8.93;1.95;;;6.30;60.40;;;;;;5049391;28;20041;-64
2022/02/19 05:42:31;;;;;;;6.95;1.33;;;6.20;61.40;;;;;;5083800;28;20040;-63
2022/02/19 05:45:57;;;;;;;7.32;1.50;;;6.20;62.70;;;;;;5075750;28;20047;-64
2022/02/19 05:49:22;;;;;;;3.90;1.33;;;6.20;62.80;;;;;;5049299;28;20500;-62
2022/02/19 05:52:47;;;;;;;8.35;1.27;;;6.20;63.00;;;;;;5049269;28;20033;-64
2022/02/19 05:56:13;;;;;;;9.88;1.67;;;6.10;63.30;;;;;;5071786;28;20052;-63
2022/02/19 05:59:38;;;;;;;5.93;1.33;;;6.10;63.90;;;;;;5078009;28;20071;-64
2022/02/19 06:03:03;;;;;;;9.18;1.65;;;6.10;64.90;;;;;;5078075;28;20036;-64
2022/02/19 06:06:29;;;;;;;5.95;1.40;;;6.10;65.80;;;;;;5061565;28;20541;-63
2022/02/19 06:09:54;;;;;;;7.30;1.52;;;6.10;66.70;;;;;;5075866;28;20044;-63
2022/02/19 06:13:19;;;;;;;8.43;2.00;;;6.10;68.30;;;;;;5074442;28;20085;-64
2022/02/19 06:16:45;;;;;;;4.05;1.42;;;6.00;70.60;;;;;;5077433;28;20040;-63
2022/02/19 06:20:10;;;;;;;4.88;1.35;;;6.00;73.60;;;;;;5066066;28;20040;-64
2022/02/19 06:23:35;;;;;;;5.72;1.50;;;5.90;76.30;;;;;;5077679;28;20075;-63
2022/02/19 06:27:01;;;;;;;4.97;1.48;;;5.90;77.60;;;;;;5085589;28;20036;-64
2022/02/19 06:30:26;;;;;;;2.40;1.10;;;5.90;80.70;;;;;;5069722;28;20481;-63
2022/02/19 06:33:52;;;;;;;6.30;1.50;;;5.90;83.70;;;;;;5078082;28;20028;-63
2022/02/19 06:37:18;;;;;;;5.47;1.33;;;5.80;85.70;;;;;;5089099;28;20043;-64
2022/02/19 06:40:43;;;;;;;5.38;1.20;;;5.80;86.40;;;;;;5075746;28;20048;-64
2022/02/19 06:44:08;;;;;;;4.00;1.30;;;5.80;86.80;;;;;;5073131;28;20036;-63
2022/02/19 06:47:33;;;;;;;6.93;1.40;;;5.80;88.20;;;;;;5070235;28;20120;-63
2022/02/19 06:50:58;;;;;;;4.15;1.13;;;5.80;87.40;;;;;;5080334;28;20494;-64
2022/02/19 06:54:24;;;;;;;3.38;1.40;;;5.80;89.30;;;;;;5075435;28;20028;-63
2022/02/19 06:57:49;;;;;;;5.18;1.02;;;5.80;90.10;;;;;;5071013;28;20051;-63
2022/02/19 07:01:15;;;;;;;3.97;1.20;;;5.80;89.80;;;;;;5084600;28;20381;-64
2022/02/19 07:04:40;;;;;;;3.05;1.25;;;5.80;90.50;;;;;;5083043;28;20052;-63
2022/02/19 07:08:05;;;;;;;6.18;0.95;;;5.90;90.20;;;;;;5059389;28;20051;-64
2022/02/19 07:11:31;;;;;;;5.53;1.13;;;5.90;90.30;;;;;;5064876;28;20048;-63
2022/02/19 07:14:56;;;;;;;2.25;0.95;;;5.90;90.30;;;;;;5074907;28;20043;-64
2022/02/19 07:18:25;;;;;;;2.45;1.13;;;6.00;90.20;;;;;;5063282;28;20474;-64
2022/02/19 07:21:30;;;;;;;;;;;6.00;89.40;;;;;;5075208;28;20036;-64
2022/02/19 07:24:55;;;;;;;4.38;1.00;;;6.00;90.20;;;;;;5078334;28;19923;-64
2022/02/19 07:28:21;;;;;;;2.92;0.70;;;6.10;89.10;;;;;;5085791;28;20455;-64
2022/02/19 07:31:46;;;;;;;2.83;0.90;;;6.10;88.40;;;;;;5066118;28;20090;-64
2022/02/19 07:35:11;;;;;;;3.17;1.00;;;6.10;90.00;;;;;;5082333;28;20542;-64
2022/02/19 07:38:37;;;;;;;4.32;0.80;;;6.10;90.00;;;;;;5083841;28;20117;-64
2022/02/19 07:42:02;;;;;;;1.77;0.70;;;6.20;90.60;;;;;;5064197;28;20036;-64
2022/02/19 07:45:27;;;;;;;3.08;1.00;;;6.10;90.90;;;;;;5085962;28;20036;-64
2022/02/19 07:48:53;;;;;;;2.25;0.68;;;6.00;91.50;;;;;;5083596;28;20092;-64
2022/02/19 07:59:06;;;;;;;1.42;0.60;;;6.00;91.60;;;;;;5070527;28;20190;-64
2022/02/19 08:02:31;;;;;;;3.42;1.35;;;6.10;92.00;;;;;;5065837;28;20040;-65
2022/02/19 08:05:56;;;;;;;2.22;0.90;;;6.10;90.40;;;;;;5082647;28;20445;-64
2022/02/19 08:09:22;;;;;;;3.10;0.75;;;6.20;91.10;;;;;;5061659;28;20051;-64
2022/02/19 08:12:47;;;;;;;3.33;1.08;;;6.30;90.90;;;;;;5066457;28;20585;-64
2022/02/19 08:16:13;;;;;;;4.00;0.88;;;6.30;90.90;;;;;;5086865;28;20047;-64
2022/02/19 08:19:38;;;;;;;3.22;1.00;;;6.30;91.90;;;;;;5068005;28;20131;-64
2022/02/19 08:23:03;;;;;;;5.50;1.23;;;6.30;92.20;;;;;;5077782;28;20056;-64
2022/02/19 08:26:29;;;;;;;1.48;0.75;;;6.30;92.60;;;;;;5075277;28;20499;-63
2022/02/19 08:29:54;;;;;;;2.38;0.73;;;6.30;93.10;;;;;;5068819;28;20058;-64
2022/02/19 08:33:19;;;;;;;2.65;0.90;;;6.30;93.40;;;;;;5077776;28;20040;-64
2022/02/19 08:36:45;;;;;;;3.25;0.73;;;6.20;92.90;;;;;;5064972;28;20044;-64
2022/02/19 08:40:10;;;;;;;3.90;0.85;;;6.20;92.50;;;;;;5066945;28;20067;-64
2022/02/19 08:43:36;;;;;;;4.90;1.27;;;6.10;93.10;;;;;;5072978;28;20399;-64
2022/02/19 08:47:01;;;;;;;1.10;0.60;;;6.20;93.30;;;;;;5068744;28;20076;-63
2022/02/19 08:50:27;;;;;;;2.60;1.05;;;6.20;94.50;;;;;;5061185;28;20047;-63
2022/02/19 08:53:52;;;;;;;0.98;0.65;;;6.20;95.20;;;;;;5074704;28;20529;-63
2022/02/19 08:57:17;;;;;;;5.00;0.80;;;6.30;97.60;;;;;;5068408;28;20067;-64
2022/02/19 09:00:42;;;;;;;2.58;0.80;;;6.20;99.90;;;;;;5082046;28;20048;-64
2022/02/19 09:04:09;;;;;;;4.65;0.65;;;6.30;97.70;;;;;;5072148;28;20044;-64
2022/02/19 09:07:33;;;;;;;1.95;0.50;;;6.40;96.10;;;;;;5077745;28;20058;-63
2022/02/19 09:10:59;;;;;;;2.50;1.27;;;6.30;96.60;;;;;;5085615;28;20036;-65
2022/02/19 09:14:24;;;;;;;3.40;0.85;;;6.40;96.70;;;;;;5069298;28;20603;-65
2022/02/19 09:17:49;;;;;;;1.83;0.70;;;6.30;98.60;;;;;;5081166;28;20060;-65
2022/02/19 09:21:15;;;;;;;1.83;0.80;;;6.30;99.30;;;;;;5070639;28;20058;-65
2022/02/19 09:24:40;;;;;;;4.30;0.90;;;6.20;99.90;;;;;;5079178;28;20055;-64
2022/02/19 09:28:05;;;;;;;2.95;0.70;;;6.20;99.90;;;;;;5083573;28;20039;-64
2022/02/19 09:31:31;;;;;;;6.78;1.20;;;6.20;99.90;;;;;;5048759;28;20037;-63
2022/02/19 09:34:56;;;;;;;4.93;2.20;;;6.40;99.90;;;;;;5083581;28;20047;-63
2022/02/19 09:38:36;;;;;;;3.42;0.90;;;6.60;98.00;;;;;;5080267;28;20547;-62
2022/02/19 09:42:02;;;;;;;2.90;0.88;;;6.70;97.60;;;;;;5048547;28;20051;-64
2022/02/19 09:45:29;;;;;;;2.88;1.05;;;6.80;96.30;;;;;;5083781;28;20032;-63
2022/02/19 09:48:53;;;;;;;3.65;0.90;;;7.20;94.60;;;;;;5066425;28;20033;-63
2022/02/19 09:52:18;;;;;;;2.20;0.95;;;7.30;92.10;;;;;;5084824;28;20040;-64
2022/02/19 09:55:43;;;;;;;3.33;0.93;;;7.30;91.90;;;;;;5082650;28;20036;-63
2022/02/19 09:59:12;;;;;;;5.65;1.00;;;7.10;91.80;;;;;;5062919;28;20408;-64
2022/02/19 10:02:49;;;;;;;4.13;1.08;;;7.00;92.90;;;;;;5075667;28;20039;-63
2022/02/19 10:06:15;;;;;;;4.13;1.00;;;7.10;93.70;;;;;;5073436;28;20120;-63
2022/02/19 10:09:46;;;;;;;4.53;1.00;;;7.30;93.50;;;;;;5078583;28;20066;-64
2022/02/19 10:13:24;;;;;;;2.83;1.00;;;7.40;92.20;;;;;;5082188;28;20411;-63
2022/02/19 10:16:49;;;;;;;4.63;0.95;;;7.50;92.00;;;;;;5076588;28;20123;-64
2022/02/19 10:20:30;;;;;;;2.38;1.15;;;7.80;90.90;;;;;;5084437;28;20429;-64
2022/02/19 10:23:58;;;;;;;5.95;1.55;;;8.00;85.70;;;;;;5071951;28;20052;-63
2022/02/19 10:27:23;;;;;;;4.10;1.45;;;8.10;85.30;;;;;;5084147;28;20048;-61
2022/02/19 10:30:49;;;;;;;13.00;1.27;;;8.00;82.00;;;;;;5077779;28;20077;-64
2022/02/19 10:34:23;;;;;;;6.18;1.30;;;7.90;77.90;;;;;;5062067;28;20044;-59
2022/02/19 10:37:48;;;;;;;4.50;1.25;;;7.70;79.40;;;;;;5076799;28;20079;-59
2022/02/19 10:41:17;;;;;;;5.45;1.30;;;7.60;80.10;;;;;;5073154;28;20040;-59
2022/02/19 10:44:38;;;;;;;;;;;7.50;80.60;;;;;;5068468;28;20079;-59
2022/02/19 10:48:06;;;;;;;3.70;1.23;;;7.60;79.80;;;;;;5073606;28;19919;-60
2022/02/19 10:51:31;;;;;;;6.20;1.20;;;7.70;81.00;;;;;;5047651;28;20045;-59
2022/02/19 10:55:00;;;;;;;5.60;1.40;;;8.10;75.50;;;;;;5083079;28;20039;-60
2022/02/19 10:58:05;;;;;;;;;;;8.10;72.40;;;;;;5079059;28;20048;-59
2022/02/19 11:01:39;;;;;;;7.30;0.90;;;8.00;70.90;;;;;;5051371;28;19908;-59
2022/02/19 11:05:05;;;;;;;5.28;1.23;;;7.90;69.60;;;;;;5089352;28;20067;-59
2022/02/19 11:08:30;;;;;;;6.10;1.27;;;8.00;67.40;;;;;;5078101;28;20032;-59
2022/02/19 11:11:55;;;;;;;3.88;1.05;;;8.20;66.20;;;;;;5082774;28;20125;-59
2022/02/19 11:15:23;;;;;;;9.85;1.65;;;8.00;64.70;;;;;;5077718;28;20050;-59
2022/02/19 11:18:46;;;;;;;4.50;1.40;;;7.90;68.80;;;;;;5066045;28;20389;-59
2022/02/19 11:22:12;;;;;;;3.92;1.48;;;7.60;69.00;;;;;;5077449;28;20040;-59
2022/02/19 11:25:40;;;;;;;7.10;1.45;;;7.40;72.40;;;;;;5077475;28;20129;-59
2022/02/19 11:29:12;;;;;;;2.88;0.90;;;7.30;72.70;;;;;;5069400;28;20036;-59
2022/02/19 11:32:37;;;;;;;5.85;1.40;;;7.40;71.00;;;;;;5082007;28;20036;-59
2022/02/19 11:36:17;;;;;;;6.28;1.55;;;7.50;68.50;;;;;;5073963;28;20079;-59
2022/02/19 11:39:43;;;;;;;4.93;1.20;;;7.50;69.70;;;;;;5079565;28;20048;-58
2022/02/19 11:43:14;;;;;;;3.45;1.23;;;7.50;67.10;;;;;;5065383;28;20036;-59
2022/02/19 11:46:22;;;;;;;9.93;1.60;;;7.50;68.00;;;;;;5057117;28;20036;-59
2022/02/19 11:50:06;;;;;;;6.32;1.30;;;7.50;67.50;;;;;;5074961;28;20074;-59
2022/02/19 11:53:13;;;;;;;5.55;1.20;;;7.60;69.10;;;;;;5079498;28;20127;-59
2022/02/19 11:56:53;;;;;;;6.20;1.20;;;7.70;68.20;;;;;;5067486;28;20041;-59
2022/02/19 12:00:25;;;;;;;6.32;1.33;;;7.60;66.10;;;;;;5087284;28;20048;-59
2022/02/19 12:04:06;;;;;;;4.72;1.23;;;7.50;65.80;;;;;;5079504;28;20047;-59
2022/02/19 12:07:07;;;;;;;3.88;1.67;;;7.50;67.50;;;;;;5079084;28;20789;-59
2022/02/19 12:10:44;;;;;;;6.80;1.77;;;7.50;63.40;;;;;;5067335;28;20105;-59
2022/02/19 12:14:22;;;;;;;5.55;1.38;;;7.50;62.30;;;;;;5049886;28;20527;-58
2022/02/19 12:18:03;;;;;;;5.05;1.40;;;7.50;62.40;;;;;;5079547;28;20060;-59
2022/02/19 12:21:26;;;;;;;9.90;2.33;;;7.50;62.40;;;;;;5082460;28;20036;-58
2022/02/19 12:24:38;;;;;;;11.30;2.30;;;7.50;61.80;;;;;;5077003;28;20385;-59
2022/02/19 12:28:03;;;;;;;6.22;1.80;;;7.40;63.00;;;;;;5049827;28;20068;-58
2022/02/19 12:31:38;;;;;;;8.60;1.40;;;7.40;60.20;;;;;;5057721;28;20043;-59
2022/02/19 12:35:06;;;;;;;3.60;1.40;;;7.40;59.20;;;;;;5078197;28;20055;-59
2022/02/19 12:38:31;;;;;;;7.75;1.45;;;7.30;59.10;;;;;;5084157;28;20048;-59
2022/02/19 12:41:57;;;;;;;5.25;1.65;;;7.30;58.20;;;;;;5074616;28;20515;-59
2022/02/19 12:45:22;;;;;;;7.72;2.00;;;7.30;57.20;;;;;;5074242;28;20046;-60
2022/02/19 12:48:47;;;;;;;5.55;1.17;;;7.30;57.00;;;;;;5047035;28;20068;-60
2022/02/19 12:52:13;;;;;;;5.07;1.52;;;7.20;55.30;;;;;;5078233;28;20052;-60
2022/02/19 12:55:38;;;;;;;5.03;1.80;;;7.20;55.30;;;;;;5066217;28;20105;-59
2022/02/19 12:59:06;;;;;;;6.00;1.80;;;7.20;56.50;;;;;;5083389;28;20630;-60
2022/02/19 13:02:32;;;;;;;6.07;2.55;;;7.20;54.70;;;;;;5081364;28;20044;-59
2022/02/19 13:05:58;;;;;;;7.25;1.67;;;7.30;53.60;;;;;;5075088;28;20090;-60
2022/02/19 13:09:23;;;;;;;4.85;1.40;;;7.30;53.30;;;;;;5073240;28;20028;-60
2022/02/19 13:12:51;;;;;;;6.72;1.48;;;7.30;55.30;;;;;;5070756;28;20464;-60
2022/02/19 13:16:16;;;;;;;10.18;1.45;;;7.30;52.80;;;;;;5079848;28;20047;-60
2022/02/19 13:19:41;;;;;;;9.25;1.80;;;7.30;51.80;;;;;;5078743;28;20130;-60
2022/02/19 13:23:07;;;;;;;12.18;2.35;;;7.30;54.00;;;;;;5060160;28;20573;-60
2022/02/19 13:26:44;;;;;;;6.03;1.17;;;7.30;53.10;;;;;;5065784;28;20075;-60
2022/02/19 13:29:52;;;;;;;6.88;1.60;;;7.30;53.70;;;;;;5068740;28;20040;-60
2022/02/19 13:33:18;;;;;;;4.72;1.45;;;7.30;53.30;;;;;;5072088;28;20073;-60
2022/02/19 13:36:43;;;;;;;4.72;2.28;;;7.30;49.70;;;;;;5086775;28;20037;-60
2022/02/19 13:40:15;;;;;;;7.10;1.33;;;7.30;46.60;;;;;;5064300;28;20037;-60
2022/02/19 13:43:52;;;;;;;7.60;1.42;;;7.30;46.70;;;;;;5065163;28;20032;-60
2022/02/19 13:47:18;;;;;;;7.43;1.30;;;7.40;45.70;;;;;;5075108;28;20044;-60
2022/02/19 13:50:43;;;;;;;11.50;1.95;;;7.50;45.20;;;;;;5061021;28;20043;-60
2022/02/19 13:54:08;;;;;;;3.08;1.50;;;7.60;45.00;;;;;;5074865;28;20097;-60
2022/02/19 13:57:40;;;;;;;6.28;1.35;;;7.70;43.50;;;;;;5051276;28;20139;-60
2022/02/19 14:01:05;;;;;;;2.17;1.00;;;7.80;42.40;;;;;;5073879;28;20036;-60
2022/02/19 14:04:32;;;;;;;3.70;0.90;;;7.90;43.20;;;;;;5077273;28;20562;-60
2022/02/19 14:08:14;;;;;;;2.97;1.63;;;8.00;40.00;;;;;;5068261;28;20068;-60
2022/02/19 14:11:39;;;;;;;4.50;1.10;;;8.20;41.30;;;;;;5083273;28;20036;-60
2022/02/19 14:15:05;;;;;;;3.92;0.90;;;8.30;41.70;;;;;;5076175;28;20028;-60
2022/02/19 14:18:30;;;;;;;4.03;1.52;;;8.30;40.00;;;;;;5045412;28;20064;-61
2022/02/19 14:21:58;;;;;;;3.10;1.15;;;8.20;39.30;;;;;;5074821;28;20427;-60
2022/02/19 14:25:41;;;;;;;5.85;1.23;;;8.00;41.10;;;;;;5063191;28;20052;-59
2022/02/19 14:29:11;;;;;;;6.05;1.48;;;7.90;43.70;;;;;;5068027;28;20087;-60
2022/02/19 14:32:36;;;;;;;7.78;1.40;;;7.80;43.80;;;;;;5092070;28;20429;-60
2022/02/19 14:36:01;;;;;;;3.35;1.10;;;7.70;44.50;;;;;;5068156;28;20036;-60
2022/02/19 14:39:30;;;;;;;8.57;2.05;;;7.60;44.20;;;;;;5082135;28;20510;-60
2022/02/19 14:42:55;;;;;;;5.88;1.70;;;7.60;44.50;;;;;;5055014;28;20023;-60
2022/02/19 14:46:20;;;;;;;5.25;1.60;;;7.50;44.90;;;;;;5055531;28;20037;-60
2022/02/19 14:49:48;;;;;;;5.55;1.20;;;7.60;43.80;;;;;;5085183;28;20514;-60
2022/02/19 14:53:11;;;;;;;4.05;1.10;;;7.60;43.80;;;;;;5081173;28;20121;-60
2022/02/19 14:56:36;;;;;;;4.45;1.55;;;7.70;45.20;;;;;;5075298;28;20029;-60
2022/02/19 15:00:02;;;;;;;5.05;1.40;;;7.60;42.80;;;;;;5071904;28;20131;-60
2022/02/19 15:03:27;;;;;;;2.58;1.55;;;7.50;43.80;;;;;;5087797;28;20043;-60
2022/02/19 15:06:52;;;;;;;4.28;1.40;;;7.40;44.20;;;;;;5055290;28;20385;-60
2022/02/19 15:10:18;;;;;;;5.47;1.13;;;7.40;45.10;;;;;;5089896;28;20036;-60
2022/02/19 15:13:43;;;;;;;5.07;1.90;;;7.30;45.40;;;;;;5074797;28;20081;-60
2022/02/19 15:17:09;;;;;;;6.05;1.55;;;7.40;44.80;;;;;;5054904;28;20045;-59
2022/02/19 15:20:34;;;;;;;4.97;1.60;;;7.30;44.30;;;;;;5075163;28;20035;-60
2022/02/19 15:23:59;;;;;;;3.90;1.13;;;7.30;46.10;;;;;;5072800;28;20045;-60
2022/02/19 15:27:25;;;;;;;5.40;1.48;;;7.20;45.60;;;;;;5084343;28;20036;-59
2022/02/19 15:30:50;;;;;;;5.85;1.95;;;7.20;46.80;;;;;;5091829;28;20039;-61
2022/02/19 15:34:15;;;;;;;5.07;1.58;;;7.10;46.60;;;;;;5075951;28;20046;-60
2022/02/19 15:37:41;;;;;;;7.68;2.17;;;7.10;47.30;;;;;;5072448;28;20064;-60
2022/02/19 15:41:06;;;;;;;8.18;2.00;;;7.00;47.50;;;;;;5083894;28;20080;-60
2022/02/19 15:44:32;;;;;;;5.10;2.55;;;7.00;48.20;;;;;;5068936;28;20428;-60
2022/02/19 15:47:57;;;;;;;4.45;1.42;;;6.90;48.20;;;;;;5086338;28;20036;-61
2022/02/19 15:51:22;;;;;;;6.07;2.17;;;6.90;48.60;;;;;;5051664;28;20044;-60
2022/02/19 15:54:47;;;;;;;8.23;1.73;;;6.80;49.30;;;;;;5081916;28;20028;-60
2022/02/19 15:58:13;;;;;;;9.18;1.40;;;6.80;48.60;;;;;;5072517;28;20056;-60
2022/02/19 16:01:38;;;;;;;3.50;1.15;;;6.80;48.40;;;;;;5051614;28;20052;-60
2022/02/19 16:05:04;;;;;;;7.13;1.88;;;6.80;48.60;;;;;;5086169;28;20093;-60
2022/02/19 16:08:30;;;;;;;6.88;1.65;;;6.70;48.40;;;;;;5072948;28;20028;-60
2022/02/19 16:11:54;;;;;;;10.30;1.83;;;6.60;47.80;;;;;;5051111;28;20134;-60
2022/02/19 16:15:20;;;;;;;5.80;1.42;;;6.50;47.70;;;;;;5089708;28;20040;-60
2022/02/19 16:18:48;;;;;;;8.00;2.33;;;6.50;49.00;;;;;;5085496;28;20438;-60
2022/02/19 16:21:55;;;;;;;;;;;6.40;48.10;;;;;;5080645;28;20403;-60
2022/02/19 16:25:19;;;;;;;6.40;1.45;;;6.40;47.90;;;;;;5051113;28;19962;-59
2022/02/19 16:28:44;;;;;;;5.25;1.65;;;6.30;48.30;;;;;;5088692;28;20032;-60
2022/02/19 16:32:09;;;;;;;3.63;1.60;;;6.30;50.40;;;;;;5067060;28;20081;-55
2022/02/19 16:35:35;;;;;;;4.47;1.75;;;6.40;50.00;;;;;;5063948;28;20032;-61
2022/02/19 16:39:00;;;;;;;6.95;1.85;;;6.40;50.50;;;;;;5078340;28;20050;-58
2022/02/19 16:42:25;;;;;;;6.75;2.65;;;6.30;50.20;;;;;;5066392;28;20527;-59
2022/02/19 16:45:51;;;;;;;7.38;2.72;;;6.20;49.90;;;;;;5070323;28;20036;-59
2022/02/19 16:49:16;;;;;;;10.85;3.38;;;6.00;51.30;;;;;;5086357;28;20036;-60
2022/02/19 16:52:42;;;;;;;8.60;2.40;;;5.70;52.50;;;;;;5069393;28;20115;-59
2022/02/19 16:56:07;;;;;;;8.10;2.45;;;5.60;53.20;;;;;;5084812;28;20036;-60
2022/02/19 16:59:32;;;;;;;7.20;3.05;;;5.40;54.90;;;;;;5071133;28;20052;-57
2022/02/19 17:02:58;;;;;;;9.50;2.42;;;5.10;55.40;;;;;;5068006;28;20109;-57
2022/02/19 17:06:23;;;;;;;6.30;1.80;;;5.00;56.10;;;;;;5081540;28;20067;-54
2022/02/19 17:09:48;;;;;;;8.07;2.42;;;4.90;56.50;;;;;;5068963;28;20581;-58
2022/02/19 17:13:14;;;;;;;4.72;1.60;;;4.70;57.50;;;;;;5083580;28;20072;-58
2022/02/19 17:16:39;;;;;;;2.88;1.40;;;4.50;58.80;;;;;;5081264;28;20032;-56
2022/02/19 17:20:07;;;;;;;3.85;1.27;;;4.50;59.20;;;;;;5063307;28;20046;-58
2022/02/19 17:23:30;;;;;;;6.90;1.48;;;4.40;60.20;;;;;;5068050;28;20048;-59
2022/02/19 17:26:57;;;;;;;6.07;1.52;;;4.30;60.50;;;;;;5067781;28;20032;-60
2022/02/19 17:30:20;;;;;;;3.92;1.33;;;4.30;60.30;;;;;;5082796;28;20055;-58
2022/02/19 17:33:46;;;;;;;5.68;1.98;;;4.20;60.70;;;;;;5085370;28;20487;-58
2022/02/19 17:37:11;;;;;;;5.35;1.95;;;4.10;61.80;;;;;;5083456;28;20142;-57
2022/02/19 17:40:37;;;;;;;12.82;2.13;;;4.00;62.00;;;;;;5085092;28;20032;-58
2022/02/19 17:44:08;;;;;;;7.35;2.00;;;4.00;63.30;;;;;;5078341;28;20561;-56
2022/02/19 17:47:27;;;;;;;4.88;2.38;;;3.90;64.40;;;;;;5061584;28;20035;-59
2022/02/19 17:50:53;;;;;;;9.98;2.45;;;3.90;64.20;;;;;;5077559;28;20043;-58
2022/02/19 17:54:19;;;;;;;4.75;1.98;;;3.90;63.90;;;;;;5077375;28;20388;-56
2022/02/19 17:57:45;;;;;;;4.50;1.63;;;3.90;64.60;;;;;;5061342;28;20044;-57
2022/02/19 18:01:09;;;;;;;8.27;2.28;;;3.90;65.00;;;;;;5067649;28;20565;-55
2022/02/19 18:04:34;;;;;;;6.03;2.08;;;3.90;64.30;;;;;;5071954;28;20032;-57
2022/02/19 18:07:59;;;;;;;5.20;2.55;;;3.80;65.60;;;;;;5066768;28;20396;-54
2022/02/19 18:11:25;;;;;;;7.57;2.70;;;3.70;66.80;;;;;;5080081;28;20043;-59